Time;durP1;ratioP1;P1;durP2;ratioP2;P2;SDS_P1;SDS_P2;PMS_P1;PMS_P2;Temp;Humidity;BMP_temperature;BMP_pressure;BME280_temperature;BME280_humidity;BME280_pressure;Samples;Min_cycle;Max_cycle;Signal;HPM_P1;HPM_P2
2023/04/30 00:01:44;;;;;;;5.00;4.60;;;18.20;58.60;19.10;101347.00;;;;4969960;28;20647;-51
2023/04/30 00:04:10;;;;;;;4.83;4.43;;;18.20;58.60;19.10;101334.00;;;;4969650;28;20183;-52
2023/04/30 00:06:36;;;;;;;6.13;4.60;;;18.20;58.60;19.10;101366.00;;;;4969651;28;20283;-51
2023/04/30 00:09:02;;;;;;;4.80;4.40;;;18.20;58.60;19.10;101361.00;;;;4969858;28;20173;-51
2023/04/30 00:11:28;;;;;;;4.60;4.30;;;18.20;58.50;19.10;101360.00;;;;4969753;28;20211;-52
2023/04/30 00:13:55;;;;;;;4.80;4.23;;;18.10;58.40;19.10;101356.00;;;;4969594;28;20208;-51
2023/04/30 00:16:21;;;;;;;4.87;4.47;;;18.20;58.40;19.00;101364.00;;;;4969804;28;20177;-51
2023/04/30 00:18:47;;;;;;;4.77;4.37;;;18.20;58.40;19.00;101363.00;;;;4969565;28;20179;-51
2023/04/30 00:21:13;;;;;;;4.53;4.13;;;18.10;58.30;19.00;101362.00;;;;4969768;28;20547;-51
2023/04/30 00:23:38;;;;;;;4.63;4.23;;;18.10;58.30;19.00;101362.00;;;;4969621;28;20175;-51
2023/04/30 00:26:04;;;;;;;4.53;4.13;;;18.10;58.30;19.00;101372.00;;;;4969634;28;20184;-53
2023/04/30 00:28:30;;;;;;;4.77;4.37;;;18.10;58.30;19.00;101364.00;;;;4969595;28;20464;-52
2023/04/30 00:30:56;;;;;;;5.00;4.10;;;18.10;58.30;18.90;101378.00;;;;4952441;28;20593;-58
2023/04/30 00:33:21;;;;;;;4.87;4.43;;;18.10;58.20;18.90;101368.00;;;;4952629;28;20208;-51
2023/04/30 00:35:47;;;;;;;4.30;4.00;;;18.00;58.10;18.90;101375.00;;;;4971051;28;20862;-52
2023/04/30 00:38:13;;;;;;;4.53;4.13;;;18.00;58.10;18.90;101379.00;;;;4970303;28;20244;-52
2023/04/30 00:40:40;;;;;;;4.70;4.17;;;18.10;58.20;18.60;101388.00;;;;4969512;28;20658;-52
2023/04/30 00:43:06;;;;;;;4.80;4.30;;;18.10;58.10;18.60;101381.00;;;;4969456;28;20192;-52
2023/04/30 00:45:31;;;;;;;4.33;3.93;;;18.00;58.10;18.80;101389.00;;;;4969413;28;20187;-52
2023/04/30 00:47:57;;;;;;;4.27;3.87;;;18.00;58.10;18.80;101384.00;;;;4969205;28;20682;-52
2023/04/30 00:50:23;;;;;;;4.57;4.17;;;18.00;58.10;18.80;101379.00;;;;4952830;28;20263;-52
2023/04/30 00:52:49;;;;;;;4.20;3.80;;;17.90;58.30;18.80;101387.00;;;;4952526;28;20273;-52
2023/04/30 00:55:15;;;;;;;4.10;3.80;;;18.00;58.10;18.80;101387.00;;;;4951829;28;20227;-51
2023/04/30 00:57:40;;;;;;;4.53;4.13;;;17.90;57.90;18.80;101390.00;;;;4951499;28;20192;-52
2023/04/30 01:00:09;;;;;;;4.20;3.80;;;17.90;58.00;18.50;101384.00;;;;4968963;28;20187;-52
2023/04/30 01:02:36;;;;;;;4.37;4.00;;;17.90;58.00;18.70;101390.00;;;;4969075;28;20177;-52
2023/04/30 01:05:05;;;;;;;4.20;3.80;;;17.90;58.00;18.70;101346.00;;;;4969053;28;20180;-52
2023/04/30 01:07:31;;;;;;;4.03;3.73;;;17.90;58.10;18.70;101380.00;;;;4968934;28;20212;-52
2023/04/30 01:09:57;;;;;;;4.10;3.80;;;17.90;58.00;18.70;101388.00;;;;4951958;28;20322;-52
2023/04/30 01:12:32;;;;;;;3.80;3.50;;;17.90;58.10;18.70;101396.00;;;;4951735;28;20346;-51
2023/04/30 01:15:25;;;;;;;4.57;4.17;;;17.90;58.00;18.70;101391.00;;;;4953656;28;20174;-52
2023/04/30 01:18:09;;;;;;;3.93;3.63;;;17.90;58.00;18.60;101384.00;;;;4972948;28;20189;-52
2023/04/30 01:20:37;;;;;;;4.93;3.63;;;17.80;57.90;18.60;101383.00;;;;4973030;28;20204;-52
2023/04/30 01:23:51;;;;;;;4.23;3.93;;;17.80;57.80;18.60;101386.00;;;;4939814;28;20176;-52
2023/04/30 01:27:02;;;;;;;4.40;4.00;;;17.80;57.80;18.60;101385.00;;;;4972615;28;20169;-52
2023/04/30 01:29:28;;;;;;;4.03;3.70;;;17.80;57.90;18.30;101380.00;;;;4907737;28;20866;-52
2023/04/30 01:31:54;;;;;;;4.07;3.77;;;17.70;57.80;18.50;101372.00;;;;4955755;28;20212;-52
2023/04/30 01:34:19;;;;;;;4.03;3.63;;;17.70;57.70;18.50;101380.00;;;;4972932;28;20546;-52
2023/04/30 01:37:29;;;;;;;4.30;3.93;;;17.70;57.80;18.50;101383.00;;;;4972550;28;20201;-52
2023/04/30 01:40:15;;;;;;;4.63;3.80;;;17.70;58.30;18.50;101379.00;;;;4972914;28;20175;-51
2023/04/30 01:42:52;;;;;;;4.13;3.73;;;17.70;57.80;18.50;101369.00;;;;4940740;28;20213;-52
2023/04/30 01:45:51;;;;;;;4.03;3.73;;;17.70;57.70;18.50;101366.00;;;;4956465;28;20183;-51
2023/04/30 01:48:40;;;;;;;4.00;3.70;;;17.70;57.70;18.40;101356.00;;;;4954774;28;20403;-52
2023/04/30 01:51:22;;;;;;;4.00;3.70;;;17.70;57.70;18.40;101367.00;;;;4956158;28;20177;-51
2023/04/30 01:53:48;;;;;;;4.20;3.80;;;17.70;57.70;18.40;101369.00;;;;4972295;28;20260;-52
2023/04/30 01:56:40;;;;;;;4.40;4.00;;;17.60;57.60;18.30;101359.00;;;;4954851;28;20188;-50
2023/04/30 01:59:06;;;;;;;4.27;3.97;;;17.60;57.50;18.40;101369.00;;;;4955790;28;20231;-52
2023/04/30 02:01:32;;;;;;;4.53;3.90;;;17.60;57.40;18.40;101360.00;;;;4954848;28;20601;-52
2023/04/30 02:03:57;;;;;;;4.37;4.00;;;17.60;57.30;18.40;101365.00;;;;4972174;28;20199;-52
2023/04/30 02:06:28;;;;;;;4.23;3.93;;;17.60;57.40;18.30;101368.00;;;;4971705;28;20252;-52
2023/04/30 02:08:55;;;;;;;4.50;4.00;;;17.60;57.40;18.30;101374.00;;;;4955281;28;20179;-52
2023/04/30 02:11:23;;;;;;;4.57;4.00;;;17.60;57.40;18.30;101369.00;;;;4972014;28;20260;-52
2023/04/30 02:13:49;;;;;;;4.30;4.00;;;17.60;57.30;18.30;101374.00;;;;4972238;28;20206;-52
2023/04/30 02:16:15;;;;;;;4.17;3.80;;;17.60;57.30;18.30;101371.00;;;;4971887;28;20172;-51
2023/04/30 02:18:41;;;;;;;4.33;3.93;;;17.50;57.30;18.30;101376.00;;;;4971972;28;20535;-52
2023/04/30 02:21:07;;;;;;;4.23;3.93;;;17.50;57.30;18.10;101351.00;;;;4971774;28;20170;-51
2023/04/30 02:23:32;;;;;;;4.27;3.97;;;17.50;57.30;18.30;101385.00;;;;4971756;28;20364;-51
2023/04/30 02:25:58;;;;;;;4.50;4.10;;;17.50;57.30;18.20;101368.00;;;;4971524;28;20489;-51
2023/04/30 02:28:24;;;;;;;4.23;3.83;;;17.50;57.30;18.20;101372.00;;;;4971699;28;20192;-52
2023/04/30 02:30:50;;;;;;;3.97;3.57;;;17.50;57.30;18.20;101367.00;;;;4970469;28;20287;-55
2023/04/30 02:33:15;;;;;;;4.03;3.63;;;17.40;57.40;18.20;101372.00;;;;4972736;28;20254;-52
2023/04/30 02:35:41;;;;;;;4.00;3.60;;;17.40;57.50;18.20;101376.00;;;;4973635;28;20177;-51
2023/04/30 02:38:07;;;;;;;3.77;3.37;;;17.40;57.60;18.10;101306.00;;;;4971461;28;20251;-51
2023/04/30 02:40:32;;;;;;;3.87;3.57;;;17.40;57.60;18.10;101372.00;;;;4971679;28;20683;-51
2023/04/30 02:43:00;;;;;;;3.83;3.53;;;17.40;57.50;18.10;101382.00;;;;4971743;28;20195;-51
2023/04/30 02:45:26;;;;;;;4.27;3.90;;;17.40;57.40;18.10;101370.00;;;;4971566;28;20671;-51
2023/04/30 02:47:51;;;;;;;3.90;3.60;;;17.40;57.40;18.10;101373.00;;;;4972019;28;20190;-51
2023/04/30 02:50:17;;;;;;;4.00;3.70;;;17.40;57.40;18.10;101375.00;;;;4972280;28;20298;-51
2023/04/30 02:52:44;;;;;;;3.90;3.60;;;17.40;57.40;18.10;101378.00;;;;4969873;28;20525;-52
2023/04/30 02:55:10;;;;;;;4.17;3.40;;;17.30;57.30;18.10;101362.00;;;;4971094;28;20678;-52
2023/04/30 02:57:36;;;;;;;3.70;3.40;;;17.40;57.40;18.00;101371.00;;;;4970760;28;20197;-51
2023/04/30 03:00:02;;;;;;;3.60;3.30;;;17.30;57.30;18.00;101375.00;;;;4971132;28;20173;-51
2023/04/30 03:02:28;;;;;;;4.00;3.70;;;17.30;57.40;18.00;101375.00;;;;4971074;28;20169;-51
2023/04/30 03:04:54;;;;;;;3.77;3.47;;;17.30;57.40;18.00;101382.00;;;;4969714;28;20495;-52
2023/04/30 03:07:20;;;;;;;3.87;3.57;;;17.30;57.40;17.90;101384.00;;;;4970573;28;20197;-52
2023/04/30 03:09:46;;;;;;;3.80;3.50;;;17.30;57.40;17.90;101383.00;;;;4971040;28;20206;-51
2023/04/30 03:12:11;;;;;;;3.83;3.53;;;17.30;57.50;17.70;101391.00;;;;4970799;28;20203;-51
2023/04/30 03:14:37;;;;;;;3.73;3.37;;;17.30;57.50;17.90;101393.00;;;;4970924;28;20179;-52
2023/04/30 03:17:03;;;;;;;4.00;3.60;;;17.20;57.40;17.90;101386.00;;;;4970414;28;20542;-52
2023/04/30 03:19:28;;;;;;;4.07;3.73;;;17.30;57.50;17.90;101375.00;;;;4971063;28;20279;-51
2023/04/30 03:21:55;;;;;;;4.50;4.10;;;17.30;57.30;17.90;101380.00;;;;4970860;28;20187;-52
2023/04/30 03:24:21;;;;;;;4.80;4.40;;;17.30;57.20;17.90;101395.00;;;;4970677;28;20183;-51
2023/04/30 03:26:46;;;;;;;5.47;4.00;;;17.20;57.10;17.90;101388.00;;;;4970609;28;20246;-51
2023/04/30 03:29:12;;;;;;;4.20;3.90;;;17.20;57.20;17.90;101391.00;;;;4970782;28;20170;-50
2023/04/30 03:31:38;;;;;;;4.40;4.00;;;17.20;57.20;17.90;101386.00;;;;4968708;28;20190;-50
2023/04/30 03:34:04;;;;;;;4.50;3.70;;;17.20;57.30;17.90;101386.00;;;;4970069;28;20273;-50
2023/04/30 03:36:30;;;;;;;4.83;3.67;;;17.20;57.30;17.90;101386.00;;;;4969233;28;20236;-50
2023/04/30 03:38:55;;;;;;;4.40;4.00;;;17.20;57.40;17.90;101380.00;;;;4969545;28;20272;-50
2023/04/30 03:41:23;;;;;;;4.43;4.10;;;17.20;57.40;17.90;101373.00;;;;4969913;28;20685;-50
2023/04/30 03:43:48;;;;;;;4.97;4.47;;;17.20;57.40;17.90;101379.00;;;;4970181;28;20180;-50
2023/04/30 03:46:14;;;;;;;4.80;4.03;;;17.20;57.50;17.80;101383.00;;;;4969178;28;20177;-50
2023/04/30 03:48:40;;;;;;;4.30;3.90;;;17.20;57.40;17.80;101379.00;;;;4969612;28;20208;-50
2023/04/30 03:51:06;;;;;;;5.83;3.80;;;17.20;57.40;17.80;101386.00;;;;4969672;28;20196;-50
2023/04/30 03:53:31;;;;;;;4.07;3.77;;;17.10;57.30;17.80;101382.00;;;;4968808;28;20213;-50
2023/04/30 03:55:57;;;;;;;4.33;3.83;;;17.10;57.40;17.80;101384.00;;;;4969652;28;20177;-50
2023/04/30 03:58:23;;;;;;;6.10;3.77;;;17.10;57.40;17.80;101367.00;;;;4956160;28;20192;-50
2023/04/30 04:00:49;;;;;;;6.70;3.73;;;17.10;57.50;17.70;101384.00;;;;4970165;28;20176;-50
2023/04/30 04:03:15;;;;;;;5.07;4.00;;;17.10;57.40;17.70;101388.00;;;;4971432;28;20181;-51
2023/04/30 04:05:40;;;;;;;4.50;3.63;;;17.10;57.40;17.70;101392.00;;;;4989952;28;20327;-50
2023/04/30 04:08:06;;;;;;;5.63;4.00;;;17.10;57.40;17.70;101401.00;;;;4988129;28;20243;-50
2023/04/30 04:10:33;;;;;;;4.77;3.50;;;17.10;57.50;17.80;101401.00;;;;4989029;28;20191;-49
2023/04/30 04:12:59;;;;;;;4.20;3.40;;;17.10;57.50;17.80;101403.00;;;;4971433;28;20204;-50
2023/04/30 04:15:25;;;;;;;6.30;3.70;;;17.10;57.70;17.80;101394.00;;;;4988284;28;20176;-50
2023/04/30 04:17:51;;;;;;;4.57;3.50;;;17.10;57.70;17.70;101400.00;;;;4987635;28;20278;-49
2023/04/30 04:20:16;;;;;;;10.17;3.80;;;17.00;57.70;17.70;101404.00;;;;4988613;28;20174;-49
2023/04/30 04:22:42;;;;;;;12.67;3.90;;;17.00;57.70;17.80;101409.00;;;;4987742;28;20187;-49
2023/04/30 04:25:09;;;;;;;14.07;4.53;;;17.00;57.80;17.70;101407.00;;;;4989046;28;20195;-51
2023/04/30 04:27:35;;;;;;;12.73;4.27;;;17.00;57.80;17.70;101402.00;;;;4987993;28;20712;-49
2023/04/30 04:30:02;;;;;;;12.23;4.50;;;17.00;57.80;17.70;101341.00;;;;4988505;28;20268;-49
2023/04/30 04:32:29;;;;;;;10.47;4.43;;;17.00;58.10;17.70;101409.00;;;;4990621;28;20210;-50
2023/04/30 04:34:55;;;;;;;10.60;4.60;;;17.00;58.20;17.70;101417.00;;;;4989511;28;20240;-50
2023/04/30 04:37:21;;;;;;;8.87;4.00;;;17.00;58.40;17.70;101417.00;;;;4988261;28;20250;-50
2023/04/30 04:39:47;;;;;;;11.03;4.47;;;17.00;58.50;17.70;101415.00;;;;4988106;28;20246;-51
2023/04/30 04:42:16;;;;;;;9.93;4.23;;;16.90;58.60;17.70;101418.00;;;;4983748;28;20261;-51
2023/04/30 04:44:42;;;;;;;9.37;3.80;;;17.00;58.80;17.70;101419.00;;;;4969391;28;20549;-50
2023/04/30 04:47:09;;;;;;;8.77;4.17;;;17.00;58.80;17.70;101418.00;;;;4988384;28;20197;-49
2023/04/30 04:49:35;;;;;;;11.20;3.97;;;16.90;58.80;17.70;101419.00;;;;4988852;28;20221;-49
2023/04/30 04:52:00;;;;;;;7.27;3.90;;;16.90;58.90;17.80;101422.00;;;;4989917;28;20172;-50
2023/04/30 04:54:27;;;;;;;7.33;4.10;;;16.90;58.90;17.70;101422.00;;;;4990022;28;20233;-51
2023/04/30 04:56:52;;;;;;;6.97;3.60;;;16.90;59.00;17.70;101425.00;;;;4989179;28;20322;-50
2023/04/30 04:59:18;;;;;;;5.53;3.93;;;16.90;58.90;17.70;101424.00;;;;4989422;28;20176;-49
2023/04/30 05:01:44;;;;;;;6.33;3.40;;;16.90;58.90;17.70;101413.00;;;;4990179;28;20172;-51
2023/04/30 05:04:09;;;;;;;6.30;3.67;;;16.90;58.90;17.70;101418.00;;;;4990119;28;20239;-50
2023/04/30 05:06:35;;;;;;;6.33;3.47;;;16.90;59.00;17.70;101416.00;;;;4989532;28;20300;-50
2023/04/30 05:09:01;;;;;;;5.70;3.37;;;16.90;59.00;17.70;101413.00;;;;4972416;28;20199;-50
2023/04/30 05:11:27;;;;;;;9.07;3.73;;;16.90;59.00;17.70;101419.00;;;;4989795;28;20263;-50
2023/04/30 05:13:53;;;;;;;5.33;3.40;;;16.90;59.00;17.70;101412.00;;;;4971988;28;20210;-50
2023/04/30 05:16:19;;;;;;;6.07;3.50;;;16.90;59.10;17.70;101417.00;;;;4989225;28;20222;-51
2023/04/30 05:18:44;;;;;;;3.93;3.37;;;16.80;59.00;17.60;101420.00;;;;4989164;28;20686;-50
2023/04/30 05:21:10;;;;;;;8.53;3.67;;;16.80;59.00;17.60;101425.00;;;;4989393;28;20888;-50
2023/04/30 05:23:36;;;;;;;6.27;3.40;;;16.80;59.00;17.60;101416.00;;;;4989736;28;20177;-50
2023/04/30 05:26:02;;;;;;;4.30;3.60;;;16.80;59.10;17.60;101434.00;;;;4972494;28;20184;-50
2023/04/30 05:28:28;;;;;;;6.40;3.47;;;16.80;59.00;17.60;101418.00;;;;4989079;28;20204;-50
2023/04/30 05:30:54;;;;;;;4.40;3.20;;;16.80;59.10;17.60;101423.00;;;;4987816;28;20180;-50
2023/04/30 05:33:20;;;;;;;5.87;3.50;;;16.80;59.10;17.60;101431.00;;;;4972621;28;20217;-50
2023/04/30 05:35:45;;;;;;;4.53;3.00;;;16.80;59.10;17.60;101432.00;;;;4990229;28;20179;-50
2023/04/30 05:38:11;;;;;;;4.27;3.17;;;16.80;59.10;17.60;101438.00;;;;4989077;28;20202;-50
2023/04/30 05:40:37;;;;;;;4.90;3.40;;;16.70;59.00;17.60;101443.00;;;;4989723;28;20204;-50
2023/04/30 05:43:03;;;;;;;5.30;3.07;;;16.80;59.10;17.60;101455.00;;;;4989266;28;20187;-50
2023/04/30 05:45:28;;;;;;;3.40;3.10;;;16.80;59.10;17.50;101457.00;;;;4989089;28;20180;-50
2023/04/30 05:47:54;;;;;;;4.20;3.30;;;16.70;59.10;17.50;101460.00;;;;4987574;28;20196;-50
2023/04/30 05:50:20;;;;;;;4.90;3.30;;;16.80;59.10;17.50;101468.00;;;;4989167;28;20196;-50
2023/04/30 05:52:46;;;;;;;5.13;3.23;;;16.70;59.10;17.50;101474.00;;;;4989302;28;20208;-50
2023/04/30 05:55:12;;;;;;;5.27;3.40;;;16.80;59.80;17.50;101462.00;;;;4989462;28;20178;-50
2023/04/30 05:57:37;;;;;;;3.50;3.20;;;16.70;59.20;17.50;101468.00;;;;4988496;28;20209;-50
2023/04/30 06:00:05;;;;;;;3.67;3.30;;;16.70;59.20;17.50;101460.00;;;;4988853;28;20177;-49
2023/04/30 06:02:31;;;;;;;5.17;3.20;;;16.70;59.30;17.50;101445.00;;;;4992849;28;20572;-50
2023/04/30 06:04:57;;;;;;;3.73;2.83;;;16.60;59.20;17.50;101449.00;;;;4993107;28;20177;-50
2023/04/30 06:07:23;;;;;;;5.17;2.97;;;16.70;59.30;17.50;101455.00;;;;4974791;28;20239;-50
2023/04/30 06:09:48;;;;;;;3.70;2.90;;;16.70;59.30;17.50;101444.00;;;;4992782;28;20181;-50
2023/04/30 06:12:14;;;;;;;3.93;2.93;;;16.60;59.30;17.50;101445.00;;;;4992879;28;20210;-50
2023/04/30 06:14:44;;;;;;;5.00;3.20;;;16.60;59.30;17.50;101444.00;;;;4992826;28;20239;-50
2023/04/30 06:17:10;;;;;;;3.50;3.00;;;16.60;59.30;17.40;101444.00;;;;4992074;28;20645;-50
2023/04/30 06:19:37;;;;;;;3.73;3.00;;;16.60;59.40;17.40;101443.00;;;;4992300;28;20211;-51
2023/04/30 06:22:03;;;;;;;3.37;2.90;;;16.60;59.40;17.40;101442.00;;;;4975288;28;20589;-50
2023/04/30 06:24:29;;;;;;;3.43;2.90;;;16.70;59.50;17.40;101449.00;;;;4992728;28;20175;-50
2023/04/30 06:26:55;;;;;;;2.90;2.60;;;16.60;59.50;17.40;101437.00;;;;4974711;28;20753;-51
2023/04/30 06:29:23;;;;;;;4.07;2.90;;;16.60;59.50;17.40;101430.00;;;;4975740;28;20172;-50
2023/04/30 06:31:50;;;;;;;4.57;2.90;;;16.60;59.60;17.40;101447.00;;;;4995679;28;20188;-51
2023/04/30 06:34:16;;;;;;;5.47;2.83;;;16.60;59.60;17.40;101442.00;;;;4975318;28;20215;-50
2023/04/30 06:36:41;;;;;;;4.07;2.90;;;16.60;59.70;17.40;101449.00;;;;4991025;28;20173;-50
2023/04/30 06:39:07;;;;;;;4.00;2.77;;;16.60;59.70;17.40;101451.00;;;;4982859;28;20252;-49
2023/04/30 06:41:33;;;;;;;3.60;3.00;;;16.60;59.70;17.40;101436.00;;;;4971446;28;20707;-49
2023/04/30 06:43:58;;;;;;;3.20;2.90;;;16.60;59.70;17.40;101440.00;;;;4972226;28;20181;-50
2023/04/30 06:46:24;;;;;;;3.30;2.93;;;16.50;59.70;17.30;101430.00;;;;4987168;28;20205;-50
2023/04/30 06:48:50;;;;;;;2.93;2.63;;;16.60;59.80;17.40;101443.00;;;;4992535;28;20616;-50
2023/04/30 06:51:16;;;;;;;3.53;2.90;;;16.50;59.80;17.30;101444.00;;;;4991824;28;20266;-49
2023/04/30 06:53:42;;;;;;;2.70;2.50;;;16.50;59.90;17.30;101443.00;;;;4954286;28;20229;-49
2023/04/30 06:56:08;;;;;;;4.60;3.10;;;16.50;59.90;17.30;101431.00;;;;4972325;28;20181;-49
2023/04/30 06:58:33;;;;;;;4.80;2.90;;;16.60;60.10;17.40;101438.00;;;;4972488;28;20256;-49
2023/04/30 07:01:00;;;;;;;3.30;2.83;;;16.60;60.20;17.30;101440.00;;;;4972581;28;20565;-49
2023/04/30 07:03:26;;;;;;;3.17;2.87;;;16.60;60.30;17.30;101443.00;;;;4971584;28;20215;-49
2023/04/30 07:05:52;;;;;;;4.60;2.73;;;16.60;60.30;17.30;101430.00;;;;4972129;28;20221;-49
2023/04/30 07:08:18;;;;;;;5.63;3.17;;;16.60;60.50;17.40;101438.00;;;;4971543;28;20205;-49
2023/04/30 07:10:44;;;;;;;4.67;3.00;;;16.60;61.50;17.40;101438.00;;;;4972344;28;20648;-49
2023/04/30 07:13:10;;;;;;;5.73;3.23;;;16.60;62.50;17.40;101437.00;;;;4970494;28;20213;-49
2023/04/30 07:15:36;;;;;;;3.33;3.03;;;16.50;63.00;17.40;101438.00;;;;4971727;28;20224;-49
2023/04/30 07:18:03;;;;;;;3.83;3.00;;;16.60;63.40;17.40;101428.00;;;;4971879;28;20243;-49
2023/04/30 07:20:29;;;;;;;4.83;3.27;;;16.50;63.90;17.40;101439.00;;;;4972173;28;20682;-49
2023/04/30 07:22:54;;;;;;;5.23;3.40;;;16.50;63.90;17.40;101432.00;;;;4972127;28;20181;-49
2023/04/30 07:25:20;;;;;;;3.07;2.77;;;16.50;64.30;17.40;101433.00;;;;4971385;28;20177;-50
2023/04/30 07:27:46;;;;;;;4.43;2.90;;;16.50;64.10;17.40;101434.00;;;;4971433;28;20217;-49
2023/04/30 07:30:11;;;;;;;4.60;3.20;;;16.60;64.00;17.40;101431.00;;;;4971829;28;20177;-49
2023/04/30 07:32:39;;;;;;;3.23;2.93;;;16.50;64.60;17.40;101429.00;;;;4972021;28;20706;-49
2023/04/30 07:35:05;;;;;;;5.23;2.97;;;16.50;63.60;17.40;101434.00;;;;4985481;28;20651;-50
2023/04/30 07:37:31;;;;;;;3.47;2.90;;;16.50;63.90;17.40;101436.00;;;;4975339;28;20207;-50
2023/04/30 07:39:57;;;;;;;3.53;2.80;;;16.60;63.80;17.40;101441.00;;;;4970528;28;20184;-49
2023/04/30 07:42:23;;;;;;;3.80;2.80;;;16.60;63.80;17.40;101436.00;;;;4971968;28;20203;-49
2023/04/30 07:44:48;;;;;;;4.47;3.27;;;16.50;63.60;17.40;101430.00;;;;4971513;28;20212;-49
2023/04/30 07:47:14;;;;;;;8.27;3.20;;;16.50;63.80;17.40;101439.00;;;;4971757;28;20204;-49
2023/04/30 07:49:40;;;;;;;4.70;3.00;;;16.50;63.90;17.40;101429.00;;;;4971921;28;20187;-48
2023/04/30 07:52:09;;;;;;;4.00;2.97;;;16.50;63.90;17.30;101429.00;;;;4971562;28;20177;-49
2023/04/30 07:54:37;;;;;;;3.20;2.90;;;16.50;63.90;17.40;101434.00;;;;4972109;28;20181;-49
2023/04/30 07:57:04;;;;;;;4.13;3.20;;;16.50;63.90;17.30;101428.00;;;;4971903;28;20189;-49
2023/04/30 07:59:30;;;;;;;5.93;3.07;;;16.50;63.90;17.30;101422.00;;;;4971449;28;20669;-49
2023/04/30 08:01:56;;;;;;;6.60;3.50;;;16.50;63.90;17.30;101409.00;;;;4954338;28;20260;-49
2023/04/30 08:04:22;;;;;;;4.93;2.77;;;16.50;63.90;17.30;101433.00;;;;4970943;28;20328;-49
2023/04/30 08:06:47;;;;;;;6.23;3.20;;;16.50;63.90;17.30;101437.00;;;;4970981;28;20680;-49
2023/04/30 08:09:14;;;;;;;5.27;3.07;;;16.50;64.00;17.30;101432.00;;;;4971541;28;20188;-49
2023/04/30 08:11:40;;;;;;;7.07;2.80;;;16.50;64.00;17.30;101429.00;;;;4971582;28;20275;-48
2023/04/30 08:14:06;;;;;;;6.77;2.93;;;16.50;64.10;17.30;101436.00;;;;4970736;28;20205;-48
2023/04/30 08:16:32;;;;;;;4.30;2.80;;;16.50;64.20;17.30;101435.00;;;;4971403;28;20196;-49
2023/04/30 08:18:58;;;;;;;3.40;2.90;;;16.50;64.20;17.30;101426.00;;;;4971481;28;20177;-48
2023/04/30 08:21:23;;;;;;;3.63;2.90;;;16.50;64.30;17.30;101429.00;;;;4972017;28;20174;-50
2023/04/30 08:23:49;;;;;;;3.20;2.90;;;16.50;64.40;17.30;101433.00;;;;4954029;28;20224;-49
2023/04/30 08:26:15;;;;;;;3.77;2.90;;;16.50;64.40;17.30;101444.00;;;;4971465;28;20181;-48
2023/04/30 08:28:41;;;;;;;3.43;2.73;;;16.50;64.40;17.30;101427.00;;;;4971381;28;20201;-49
2023/04/30 08:31:07;;;;;;;3.67;2.70;;;16.50;64.40;17.30;101437.00;;;;4971361;28;20181;-49
2023/04/30 08:33:32;;;;;;;4.93;3.13;;;16.50;64.50;17.30;101442.00;;;;4973349;28;20674;-50
2023/04/30 08:35:58;;;;;;;3.10;2.60;;;16.50;64.50;17.30;101435.00;;;;4970795;28;20177;-50
2023/04/30 08:38:24;;;;;;;3.17;2.87;;;16.50;64.50;17.30;101438.00;;;;4969581;28;20197;-49
2023/04/30 08:41:07;;;;;;;4.03;2.63;;;16.50;64.70;17.30;101427.00;;;;4970119;28;20212;-49
2023/04/30 08:43:36;;;;;;;5.53;2.60;;;16.50;64.70;17.30;101436.00;;;;4953576;28;20188;-49
2023/04/30 08:46:04;;;;;;;2.80;2.60;;;16.50;64.70;17.30;101418.00;;;;4968474;28;20330;-49
2023/04/30 08:48:30;;;;;;;3.40;2.73;;;16.50;65.50;17.30;101415.00;;;;4954087;28;20201;-49
2023/04/30 08:50:59;;;;;;;4.17;2.80;;;16.50;65.70;17.40;101429.00;;;;4954702;28;20176;-49
2023/04/30 08:53:24;;;;;;;3.70;3.03;;;16.50;65.90;17.40;101421.00;;;;4952710;28;20280;-49
2023/04/30 08:55:50;;;;;;;4.00;2.80;;;16.60;66.20;17.40;101429.00;;;;4969956;28;20694;-50
2023/04/30 08:58:16;;;;;;;2.60;2.40;;;16.60;66.30;17.40;101421.00;;;;4969935;28;20208;-50
2023/04/30 09:00:41;;;;;;;2.93;2.63;;;16.60;66.50;17.40;101421.00;;;;4971058;28;20639;-50
2023/04/30 09:03:07;;;;;;;3.93;2.80;;;16.60;66.40;17.40;101414.00;;;;4970991;28;20222;-50
2023/04/30 09:05:33;;;;;;;5.00;2.73;;;16.60;66.40;17.40;101412.00;;;;4968583;28;21004;-50
2023/04/30 09:07:59;;;;;;;7.20;3.20;;;16.60;66.40;17.50;101410.00;;;;4966380;28;20263;-50
2023/04/30 09:10:24;;;;;;;10.90;3.53;;;16.70;67.40;17.50;101416.00;;;;4970428;28;20216;-50
2023/04/30 09:13:07;;;;;;;7.77;3.03;;;16.70;68.50;17.50;101416.00;;;;4970165;28;20205;-49
2023/04/30 09:15:33;;;;;;;5.73;3.40;;;16.70;68.50;17.50;101413.00;;;;4970139;28;20263;-50
2023/04/30 09:18:16;;;;;;;11.83;3.93;;;16.80;68.60;17.60;101411.00;;;;4970017;28;20196;-50
2023/04/30 09:20:54;;;;;;;8.17;3.90;;;16.80;69.40;17.60;101411.00;;;;4970097;28;20204;-48
2023/04/30 09:23:19;;;;;;;9.60;3.90;;;16.80;69.80;17.60;101404.00;;;;4970325;28;20180;-49
2023/04/30 09:25:45;;;;;;;7.93;3.30;;;16.80;69.50;17.60;101415.00;;;;4956160;28;20528;-49
2023/04/30 09:28:12;;;;;;;10.30;3.47;;;16.80;69.70;17.60;101400.00;;;;4970693;28;20209;-51
2023/04/30 09:30:39;;;;;;;6.27;3.00;;;16.80;69.70;17.60;101401.00;;;;4970889;28;20177;-48
2023/04/30 09:33:05;;;;;;;8.13;3.23;;;16.80;69.70;17.60;101399.00;;;;4970713;28;20204;-49
2023/04/30 09:35:31;;;;;;;5.60;3.10;;;16.80;69.70;17.60;101395.00;;;;4970002;28;20656;-50
2023/04/30 09:38:00;;;;;;;4.70;3.10;;;16.80;69.70;17.60;101387.00;;;;4973410;28;20280;-51
2023/04/30 09:40:40;;;;;;;4.97;3.00;;;16.80;69.80;17.60;101380.00;;;;4973288;28;20176;-50
2023/04/30 09:43:06;;;;;;;7.37;3.40;;;16.80;69.70;17.70;101377.00;;;;4955578;28;20173;-50
2023/04/30 09:45:50;;;;;;;4.23;2.90;;;16.90;70.00;17.70;101380.00;;;;4972837;28;20183;-50
2023/04/30 09:48:22;;;;;;;7.03;3.10;;;16.90;69.80;17.70;101372.00;;;;4972821;28;20196;-49
2023/04/30 09:50:50;;;;;;;3.93;2.90;;;16.90;69.80;17.70;101375.00;;;;4973848;28;20224;-50
2023/04/30 09:53:16;;;;;;;4.87;2.60;;;16.90;69.90;17.70;101380.00;;;;4974440;28;20209;-50
2023/04/30 09:55:50;;;;;;;2.57;2.37;;;16.80;69.80;17.70;101381.00;;;;4974315;28;20169;-49
2023/04/30 09:58:17;;;;;;;4.00;2.67;;;16.90;70.00;17.70;101372.00;;;;4973974;28;20185;-50
2023/04/30 10:00:45;;;;;;;4.30;2.60;;;16.90;70.10;17.80;101367.00;;;;4974384;28;20181;-50
2023/04/30 10:03:12;;;;;;;4.17;2.73;;;16.90;70.10;17.80;101372.00;;;;4974155;28;20246;-50
2023/04/30 10:05:48;;;;;;;7.10;3.10;;;16.90;70.20;17.80;101357.00;;;;4974284;28;20707;-50
2023/04/30 10:08:29;;;;;;;4.00;2.70;;;17.00;70.40;17.80;101365.00;;;;4973725;28;20259;-50
2023/04/30 10:11:02;;;;;;;3.37;2.57;;;17.00;70.40;17.80;101365.00;;;;4956914;28;20177;-50
2023/04/30 10:13:36;;;;;;;4.80;2.70;;;17.00;70.40;17.90;101358.00;;;;4956944;28;20205;-50
2023/04/30 10:16:11;;;;;;;3.77;2.57;;;17.00;70.60;17.90;101357.00;;;;4957577;28;20197;-50
2023/04/30 10:18:38;;;;;;;3.90;2.67;;;17.00;70.50;17.90;101364.00;;;;4956386;28;20196;-50
2023/04/30 10:21:11;;;;;;;3.63;2.80;;;17.10;70.70;17.90;101343.00;;;;4956459;28;20173;-50
2023/04/30 10:23:38;;;;;;;4.93;2.70;;;17.10;70.50;17.90;101352.00;;;;4973678;28;20701;-50
2023/04/30 10:26:04;;;;;;;5.67;2.63;;;17.00;70.60;17.90;101341.00;;;;4973352;28;20181;-51
2023/04/30 10:28:31;;;;;;;5.20;2.70;;;17.10;70.70;18.00;101365.00;;;;4973760;28;20271;-50
2023/04/30 10:30:56;;;;;;;2.93;2.50;;;17.10;70.80;18.00;101341.00;;;;4973585;28;20184;-50
2023/04/30 10:33:33;;;;;;;2.63;2.40;;;17.10;70.70;18.00;101347.00;;;;4956572;28;20200;-50
2023/04/30 10:36:03;;;;;;;3.87;2.40;;;17.10;70.60;18.00;101358.00;;;;4942591;28;20173;-50
2023/04/30 10:38:29;;;;;;;2.47;2.27;;;17.20;70.90;18.00;101350.00;;;;4959943;28;20681;-51
2023/04/30 10:40:59;;;;;;;2.53;2.33;;;17.20;70.70;18.10;101348.00;;;;4956401;28;20528;-50
2023/04/30 10:43:25;;;;;;;2.57;2.37;;;17.20;70.80;18.10;101333.00;;;;4956830;28;20177;-50
2023/04/30 10:45:51;;;;;;;2.97;2.30;;;17.20;70.70;18.10;101317.00;;;;4973280;28;20178;-50
2023/04/30 10:48:23;;;;;;;3.17;2.50;;;17.20;70.50;18.10;101326.00;;;;4955532;28;20636;-50
2023/04/30 10:50:55;;;;;;;2.47;2.27;;;17.20;70.60;18.20;101332.00;;;;4957671;28;20196;-51